createdAt,value
2019-02-20T00:02:28.876Z,19.50
2019-02-20T00:04:59.629Z,18.32
2019-02-20T00:07:30.373Z,19.77
2019-02-20T00:10:01.469Z,18.55
2019-02-20T00:12:32.945Z,16.40
2019-02-20T00:15:03.866Z,21.55
2019-02-20T00:17:34.971Z,20.17
2019-02-20T00:20:06.913Z,19.45
2019-02-20T00:22:40.274Z,18.13
2019-02-20T00:25:10.663Z,19.73
2019-02-20T00:27:41.542Z,19.40
2019-02-20T00:30:12.365Z,21.95
2019-02-20T00:32:43.404Z,23.50
2019-02-20T00:35:14.191Z,20.92
2019-02-20T00:37:45.261Z,22.15
2019-02-20T00:40:16.011Z,19.85
2019-02-20T00:42:47.074Z,19.73
2019-02-20T00:45:30.891Z,19.90
2019-02-20T00:48:26.979Z,19.23
2019-02-20T00:51:09.681Z,20.02
2019-02-20T00:53:46.522Z,23.05
2019-02-20T00:56:17.262Z,23.30
2019-02-20T00:58:48.486Z,21.85
2019-02-20T01:01:19.633Z,17.82
2019-02-20T01:03:50.411Z,18.80
2019-02-20T01:06:21.175Z,21.50
2019-02-20T01:08:51.929Z,18.95
2019-02-20T01:11:22.940Z,21.73
2019-02-20T01:13:53.742Z,23.62
2019-02-20T01:16:24.960Z,25.50
2019-02-20T01:18:57.151Z,23.67
2019-02-20T01:21:27.923Z,24.18
2019-02-20T01:23:58.670Z,17.93
2019-02-20T01:26:29.835Z,22.87
2019-02-20T01:29:00.578Z,23.32
2019-02-20T01:31:31.415Z,18.70
2019-02-20T01:34:02.412Z,21.15
2019-02-20T01:36:33.503Z,23.38
2019-02-20T01:39:05.784Z,21.82
2019-02-20T01:41:36.955Z,23.32
2019-02-20T01:44:07.685Z,21.77
2019-02-20T01:46:38.788Z,23.15
2019-02-20T01:49:09.842Z,19.48
2019-02-20T01:51:40.963Z,19.60
2019-02-20T01:54:11.679Z,19.52
2019-02-20T01:56:42.707Z,19.60
2019-02-20T01:59:13.427Z,17.77
2019-02-20T02:01:44.531Z,20.37
2019-02-20T02:04:15.463Z,19.85
2019-02-20T02:06:46.213Z,23.05
2019-02-20T02:09:17.023Z,21.65
2019-02-20T02:11:47.846Z,21.60
2019-02-20T02:14:18.898Z,20.97
2019-02-20T02:16:50.259Z,19.35
2019-02-20T02:19:21.054Z,18.70
2019-02-20T02:21:51.827Z,18.55
2019-02-20T02:24:24.163Z,17.25
2019-02-20T02:26:54.979Z,19.85
2019-02-20T02:29:26.995Z,22.02
2019-02-20T02:31:58.147Z,21.40
2019-02-20T02:34:29.184Z,20.10
2019-02-20T02:37:00.011Z,20.17
2019-02-20T02:39:31.034Z,18.12
2019-02-20T02:42:01.758Z,19.90
2019-02-20T02:44:32.864Z,16.12
2019-02-20T02:47:03.613Z,19.62
2019-02-20T02:49:34.351Z,18.92
2019-02-20T02:52:05.338Z,18.33
2019-02-20T02:54:36.088Z,20.12
2019-02-20T02:57:06.841Z,20.07
2019-02-20T02:59:39.497Z,22.58
2019-02-20T03:02:10.248Z,18.35
2019-02-20T03:04:40.967Z,19.60
2019-02-20T03:07:12.105Z,18.10
2019-02-20T03:09:42.856Z,21.80
2019-02-20T03:12:13.979Z,19.32
2019-02-20T03:14:44.778Z,19.20
2019-02-20T03:17:16.348Z,14.73
2019-02-20T03:19:47.121Z,20.10
2019-02-20T03:22:18.867Z,17.42
2019-02-20T03:24:49.761Z,17.85
2019-02-20T03:27:21.012Z,19.87
2019-02-20T03:29:52.795Z,19.77
2019-02-20T03:32:23.912Z,17.42
2019-02-20T03:34:55.838Z,16.73
2019-02-20T03:37:26.931Z,19.48
2019-02-20T03:39:57.941Z,20.37
2019-02-20T03:42:28.689Z,20.23
2019-02-20T03:44:59.805Z,17.10
2019-02-20T03:47:30.886Z,20.17
2019-02-20T03:50:02.060Z,15.78
2019-02-20T03:52:32.997Z,17.90
2019-02-20T03:55:04.143Z,17.03
2019-02-20T03:57:35.401Z,16.73
2019-02-20T04:00:06.746Z,22.15
2019-02-20T04:02:37.484Z,21.10
2019-02-20T04:05:08.279Z,21.02
2019-02-20T04:07:39.359Z,21.07
2019-02-20T04:10:10.515Z,17.45
2019-02-20T04:12:41.253Z,17.47
2019-02-20T04:15:13.181Z,16.87
2019-02-20T04:17:44.042Z,20.65
2019-02-20T04:20:14.782Z,17.87
2019-02-20T04:22:45.830Z,18.05
2019-02-20T04:25:16.867Z,18.23
2019-02-20T04:27:47.886Z,16.67
2019-02-20T04:30:18.840Z,19.32
2019-02-20T04:32:49.810Z,20.30
2019-02-20T04:35:20.615Z,16.20
2019-02-20T04:37:51.522Z,17.02
2019-02-20T04:40:22.262Z,17.70
2019-02-20T04:42:53.379Z,17.55
2019-02-20T04:45:24.821Z,20.72
2019-02-20T04:47:55.850Z,18.10
2019-02-20T04:50:26.691Z,18.35
2019-02-20T04:52:57.519Z,19.87
2019-02-20T04:55:28.250Z,17.77
2019-02-20T04:58:15.199Z,23.50
2019-02-20T05:00:46.011Z,16.97
2019-02-20T05:03:16.752Z,17.17
2019-02-20T05:05:47.796Z,17.23
2019-02-20T05:08:19.668Z,20.20
2019-02-20T05:10:50.398Z,18.60
2019-02-20T05:13:21.340Z,16.97
2019-02-20T05:15:52.171Z,20.57
2019-02-20T05:18:23.220Z,18.07
2019-02-20T05:20:54.219Z,20.45
2019-02-20T05:23:25.007Z,15.03
2019-02-20T05:25:56.127Z,15.98
2019-02-20T05:28:26.886Z,18.60
2019-02-20T05:30:57.700Z,17.15
2019-02-20T05:33:28.471Z,21.68
2019-02-20T05:36:00.293Z,17.45
2019-02-20T05:38:31.034Z,19.73
2019-02-20T05:41:02.139Z,16.20
2019-02-20T05:43:33.024Z,17.50
2019-02-20T05:46:03.784Z,15.93
2019-02-20T05:48:34.768Z,19.62
2019-02-20T05:51:06.232Z,22.20
2019-02-20T05:53:37.545Z,21.23
2019-02-20T05:56:08.418Z,20.52
2019-02-20T05:58:39.258Z,16.97
2019-02-20T06:01:11.230Z,20.30
2019-02-20T06:03:42.393Z,17.10
2019-02-20T06:06:13.470Z,16.90
2019-02-20T06:08:44.502Z,20.73
2019-02-20T06:11:15.696Z,19.40
2019-02-20T06:13:47.149Z,19.00
2019-02-20T06:16:17.890Z,20.00
2019-02-20T06:18:48.591Z,19.62
2019-02-20T06:21:19.387Z,18.57
2019-02-20T06:23:51.732Z,23.98
2019-02-20T06:26:22.757Z,19.90
2019-02-20T06:28:54.598Z,20.48
2019-02-20T06:31:27.158Z,23.32
2019-02-20T06:33:58.333Z,21.12
2019-02-20T06:36:29.067Z,21.37
2019-02-20T06:38:59.907Z,25.43
2019-02-20T06:41:38.560Z,20.20
2019-02-20T06:44:04.409Z,21.82
2019-02-20T06:46:35.266Z,19.62
2019-02-20T06:49:06.071Z,19.83
2019-02-20T06:51:36.831Z,20.08
2019-02-20T06:54:07.548Z,19.92
2019-02-20T06:56:38.305Z,19.57
2019-02-20T06:59:09.482Z,18.52
2019-02-20T07:01:40.269Z,20.75
2019-02-20T07:04:11.023Z,18.37
2019-02-20T07:07:05.919Z,19.15
2019-02-20T07:10:20.171Z,18.60
2019-02-20T07:13:08.102Z,20.82
2019-02-20T07:16:07.195Z,21.68
2019-02-20T07:19:09.434Z,21.48
2019-02-20T07:22:20.964Z,19.30
2019-02-20T07:25:29.482Z,21.62
2019-02-20T07:28:45.241Z,19.80
2019-02-20T07:31:15.942Z,22.32
2019-02-20T07:33:46.706Z,23.75
2019-02-20T07:36:17.483Z,21.40
2019-02-20T07:38:48.223Z,26.70
2019-02-20T07:41:18.946Z,21.50
2019-02-20T07:43:49.710Z,20.27
2019-02-20T07:46:20.447Z,21.37
2019-02-20T07:48:51.195Z,20.12
2019-02-20T07:51:21.934Z,21.57
2019-02-20T07:53:52.699Z,21.68
2019-02-20T07:56:24.115Z,21.62
2019-02-20T07:58:55.571Z,21.23
2019-02-20T08:01:26.977Z,18.42
2019-02-20T08:03:57.791Z,22.70
2019-02-20T08:06:28.537Z,19.55
2019-02-20T08:08:59.639Z,23.40
2019-02-20T08:11:30.396Z,19.73
2019-02-20T08:14:01.290Z,20.02
2019-02-20T08:16:32.074Z,20.60
2019-02-20T08:19:02.900Z,22.77
2019-02-20T08:21:34.389Z,21.60
2019-02-20T08:24:05.624Z,21.82
2019-02-20T08:26:36.459Z,22.13
2019-02-20T08:29:07.731Z,24.27
2019-02-20T08:31:38.474Z,21.42
2019-02-20T08:34:09.251Z,24.27
2019-02-20T08:36:50.105Z,22.08
2019-02-20T08:39:20.919Z,22.55
2019-02-20T08:41:51.992Z,21.52
2019-02-20T08:44:23.372Z,26.53
2019-02-20T08:46:54.139Z,25.23
2019-02-20T08:49:24.911Z,23.07
2019-02-20T08:51:55.688Z,25.62
2019-02-20T08:54:26.789Z,25.37
2019-02-20T08:56:57.588Z,25.10
2019-02-20T08:59:28.334Z,23.80
2019-02-20T09:01:59.137Z,27.48
2019-02-20T09:04:29.864Z,26.02
2019-02-20T09:07:00.795Z,26.15
2019-02-20T09:09:32.360Z,27.00
2019-02-20T09:12:03.146Z,25.50
2019-02-20T09:14:34.073Z,23.32
2019-02-20T09:17:06.206Z,27.58
2019-02-20T09:19:37.249Z,25.08
2019-02-20T09:22:08.004Z,26.60
2019-02-20T09:24:38.752Z,27.25
2019-02-20T09:27:09.874Z,27.90
2019-02-20T09:29:40.646Z,29.53
2019-02-20T09:32:11.505Z,29.52
2019-02-20T09:34:42.416Z,25.37
2019-02-20T09:37:13.510Z,29.48
2019-02-20T09:39:44.355Z,27.45
2019-02-20T09:42:17.241Z,28.45
2019-02-20T09:44:49.024Z,30.37
2019-02-20T09:47:20.837Z,27.50
2019-02-20T09:49:51.741Z,27.37
2019-02-20T09:52:22.931Z,25.68
2019-02-20T09:54:53.955Z,25.90
2019-02-20T09:57:24.767Z,27.32
2019-02-20T09:59:55.631Z,28.95
2019-02-20T10:02:26.678Z,26.33
2019-02-20T10:04:57.417Z,26.17
2019-02-20T10:07:29.317Z,29.05
2019-02-20T10:10:00.030Z,28.25
2019-02-20T10:12:30.775Z,28.80
2019-02-20T10:15:01.975Z,29.57
2019-02-20T10:17:33.792Z,29.77
2019-02-20T10:20:04.922Z,29.23
2019-02-20T10:22:35.785Z,30.15
2019-02-20T10:25:08.013Z,29.50
2019-02-20T10:27:38.851Z,26.73
2019-02-20T10:30:12.898Z,30.43
2019-02-20T10:32:43.656Z,32.90
2019-02-20T10:35:15.037Z,28.65
2019-02-20T10:37:46.086Z,30.33
2019-02-20T10:40:17.111Z,29.25
2019-02-20T10:42:48.266Z,34.05
2019-02-20T10:45:19.429Z,33.58
2019-02-20T10:47:50.188Z,31.17
2019-02-20T10:50:21.001Z,26.93
2019-02-20T10:52:51.773Z,27.42
2019-02-20T10:55:22.518Z,25.15
2019-02-20T10:57:53.262Z,20.45
2019-02-20T11:00:26.346Z,21.57
2019-02-20T11:02:58.193Z,20.65
2019-02-20T11:05:28.940Z,22.57
2019-02-20T11:07:59.758Z,19.73
2019-02-20T11:10:31.117Z,19.13
2019-02-20T11:13:01.871Z,17.02
2019-02-20T11:15:33.687Z,16.48
2019-02-20T11:18:04.523Z,16.90
2019-02-20T11:20:35.259Z,16.82
2019-02-20T11:23:06.086Z,15.50
2019-02-20T11:25:37.207Z,19.27
2019-02-20T11:28:08.335Z,16.37
2019-02-20T11:30:39.207Z,14.95
2019-02-20T11:33:11.172Z,12.78
2019-02-20T11:35:42.298Z,15.23
2019-02-20T11:38:14.229Z,12.63
2019-02-20T11:40:46.093Z,12.43
2019-02-20T11:43:17.089Z,12.78
2019-02-20T11:45:47.835Z,13.45
2019-02-20T11:48:18.635Z,11.50
2019-02-20T11:50:49.440Z,13.85
2019-02-20T11:53:20.429Z,14.98
2019-02-20T11:55:51.258Z,12.53
2019-02-20T11:58:22.279Z,11.65
2019-02-20T12:00:53.072Z,12.93
2019-02-20T12:03:24.487Z,13.08
2019-02-20T12:05:55.681Z,11.17
2019-02-20T12:08:27.168Z,11.67
2019-02-20T12:10:57.905Z,11.25
2019-02-20T12:13:28.812Z,10.15
2019-02-20T12:15:59.605Z,9.40
2019-02-20T12:18:31.723Z,9.65
2019-02-20T12:21:02.883Z,8.33
2019-02-20T12:23:37.138Z,10.45
2019-02-20T12:26:06.397Z,9.53
2019-02-20T12:28:37.143Z,9.10
2019-02-20T12:31:08.221Z,8.55
2019-02-20T12:33:39.134Z,10.00
2019-02-20T12:36:10.147Z,9.68
2019-02-20T12:38:41.306Z,8.80
2019-02-20T12:41:12.442Z,9.30
2019-02-20T12:43:43.451Z,7.87
2019-02-20T12:46:14.415Z,7.33
2019-02-20T12:48:45.488Z,9.55
2019-02-20T12:51:16.287Z,9.08
2019-02-20T12:53:47.021Z,10.70
2019-02-20T12:56:18.162Z,10.35
2019-02-20T12:58:49.345Z,9.93
2019-02-20T13:01:20.145Z,8.53
2019-02-20T13:03:50.888Z,9.48
2019-02-20T13:06:21.945Z,9.58
2019-02-20T13:08:52.675Z,8.00
2019-02-20T13:11:23.481Z,8.05
2019-02-20T13:13:54.578Z,7.37
2019-02-20T13:16:25.507Z,8.78
2019-02-20T13:18:56.566Z,9.43
2019-02-20T13:21:27.666Z,8.73
2019-02-20T13:23:58.408Z,9.53
2019-02-20T13:26:29.115Z,9.03
2019-02-20T13:28:59.965Z,8.98
2019-02-20T13:31:30.769Z,12.58
2019-02-20T13:34:01.502Z,11.15
2019-02-20T13:36:33.558Z,9.28
2019-02-20T13:39:06.039Z,12.43
2019-02-20T13:41:38.658Z,10.58
2019-02-20T13:44:10.556Z,10.93
2019-02-20T13:46:41.575Z,12.03
2019-02-20T13:49:12.351Z,11.60
2019-02-20T13:51:43.130Z,11.57
2019-02-20T13:54:13.854Z,11.38
2019-02-20T13:56:44.651Z,11.12
2019-02-20T13:59:15.652Z,12.50
2019-02-20T14:01:46.490Z,13.47
2019-02-20T14:04:18.718Z,11.33
2019-02-20T14:06:49.715Z,12.65
2019-02-20T14:09:20.599Z,12.68
2019-02-20T14:11:51.414Z,12.03
2019-02-20T14:14:22.167Z,11.63
2019-02-20T14:16:53.176Z,11.60
2019-02-20T14:19:23.999Z,13.20
2019-02-20T14:21:54.803Z,11.45
2019-02-20T14:24:25.650Z,11.12
2019-02-20T14:26:56.372Z,11.50
2019-02-20T14:29:27.414Z,8.33
2019-02-20T14:31:58.555Z,8.50
2019-02-20T14:34:29.698Z,8.83
2019-02-20T14:37:00.718Z,10.10
2019-02-20T14:39:31.542Z,9.57
2019-02-20T14:42:02.367Z,8.95
2019-02-20T14:44:33.778Z,9.48
2019-02-20T14:47:04.495Z,8.80
2019-02-20T14:49:35.327Z,12.23
2019-02-20T14:52:06.038Z,10.53
2019-02-20T14:54:36.756Z,9.07
2019-02-20T14:57:07.829Z,10.20
2019-02-20T14:59:40.195Z,10.38
2019-02-20T15:02:10.898Z,8.78
2019-02-20T15:04:41.810Z,9.23
2019-02-20T15:07:12.505Z,12.98
2019-02-20T15:09:44.682Z,10.78
2019-02-20T15:12:15.907Z,9.18
2019-02-20T15:14:47.693Z,9.93
2019-02-20T15:17:19.538Z,8.00
2019-02-20T15:19:50.363Z,8.85
2019-02-20T15:22:21.115Z,10.03
2019-02-20T15:24:52.205Z,10.48
2019-02-20T15:27:28.427Z,7.92
2019-02-20T15:29:56.545Z,9.63
2019-02-20T15:32:27.470Z,8.78
2019-02-20T15:34:58.243Z,10.30
2019-02-20T15:37:29.438Z,10.95
2019-02-20T15:40:00.277Z,11.13
2019-02-20T15:42:31.064Z,12.85
2019-02-20T15:45:01.772Z,10.85
2019-02-20T15:47:32.579Z,10.98
2019-02-20T15:50:04.319Z,11.18
2019-02-20T15:52:36.180Z,10.80
2019-02-20T15:55:07.643Z,11.78
2019-02-20T15:57:38.879Z,12.70
2019-02-20T16:00:11.677Z,12.55
2019-02-20T16:02:42.811Z,12.40
2019-02-20T16:05:14.257Z,10.72
2019-02-20T16:07:44.988Z,11.00
2019-02-20T16:10:16.177Z,12.10
2019-02-20T16:12:47.059Z,13.40
2019-02-20T16:15:17.940Z,10.10
2019-02-20T16:17:48.855Z,12.63
2019-02-20T16:20:19.841Z,13.08
2019-02-20T16:22:50.912Z,11.70
2019-02-20T16:25:21.658Z,10.65
2019-02-20T16:27:52.715Z,10.72
2019-02-20T16:30:23.566Z,15.30
2019-02-20T16:32:55.865Z,13.83
2019-02-20T16:35:27.965Z,15.98
2019-02-20T16:37:58.819Z,13.67
2019-02-20T16:40:29.551Z,12.60
2019-02-20T16:43:00.355Z,12.40
2019-02-20T16:45:32.176Z,12.93
2019-02-20T16:48:03.290Z,11.50
2019-02-20T16:50:35.404Z,12.78
2019-02-20T16:53:06.225Z,13.45
2019-02-20T16:55:37.118Z,15.63
2019-02-20T16:58:08.191Z,13.50
2019-02-20T17:00:40.074Z,15.78
2019-02-20T17:03:10.977Z,14.65
2019-02-20T17:05:42.683Z,13.65
2019-02-20T17:08:13.511Z,12.95
2019-02-20T17:10:44.251Z,13.98
2019-02-20T17:13:15.614Z,15.35
2019-02-20T17:15:46.412Z,13.22
2019-02-20T17:18:17.194Z,14.90
2019-02-20T17:20:48.019Z,13.05
2019-02-20T17:23:19.494Z,16.00
2019-02-20T17:25:50.455Z,13.08
2019-02-20T17:28:22.199Z,14.37
2019-02-20T17:30:53.079Z,12.05
2019-02-20T17:33:23.924Z,13.38
2019-02-20T17:35:54.824Z,13.22
2019-02-20T17:38:26.367Z,12.73
2019-02-20T17:40:57.526Z,12.93
2019-02-20T17:43:29.252Z,14.50
2019-02-20T17:46:00.301Z,12.25
2019-02-20T17:48:31.434Z,15.10
2019-02-20T17:51:02.232Z,13.43
2019-02-20T17:53:33.603Z,15.18
2019-02-20T17:56:04.455Z,15.15
2019-02-20T17:58:35.163Z,14.63
2019-02-20T18:01:11.031Z,14.23
2019-02-20T18:03:42.279Z,16.15
2019-02-20T18:06:14.151Z,16.77
2019-02-20T18:08:45.047Z,15.68
2019-02-20T18:11:15.762Z,15.50
2019-02-20T18:13:46.512Z,14.83
2019-02-20T18:16:17.559Z,17.55
2019-02-20T18:18:48.629Z,16.20
2019-02-20T18:21:19.708Z,14.95
2019-02-20T18:23:50.818Z,15.28
2019-02-20T18:26:24.651Z,15.75
2019-02-20T18:28:55.663Z,15.08
2019-02-20T18:31:26.588Z,16.93
2019-02-20T18:33:57.345Z,16.90
2019-02-20T18:36:29.075Z,18.23
2019-02-20T18:39:00.140Z,15.30
2019-02-20T18:41:30.883Z,14.37
2019-02-20T18:44:01.674Z,14.15
2019-02-20T18:46:33.089Z,15.20
2019-02-20T18:49:04.277Z,16.10
2019-02-20T18:51:35.118Z,17.62
2019-02-20T18:54:06.028Z,17.55
2019-02-20T18:56:36.861Z,16.77
2019-02-20T18:59:07.929Z,16.70
2019-02-20T19:01:38.922Z,16.90
2019-02-20T19:04:11.211Z,17.20
2019-02-20T19:06:44.196Z,16.97
2019-02-20T19:09:27.635Z,16.12
2019-02-20T19:12:44.837Z,14.70
2019-02-20T19:15:56.352Z,14.93
2019-02-20T19:19:02.387Z,15.65
2019-02-20T19:22:17.659Z,16.77
2019-02-20T19:25:13.036Z,17.62
2019-02-20T19:27:50.254Z,15.20
2019-02-20T19:30:57.327Z,15.20
2019-02-20T19:33:59.402Z,15.78
2019-02-20T19:37:20.562Z,24.18
2019-02-20T19:40:04.639Z,15.90
2019-02-20T19:42:44.377Z,15.95
2019-02-20T19:45:37.668Z,15.43
2019-02-20T19:48:38.531Z,17.57
2019-02-20T19:52:05.684Z,15.15
2019-02-20T19:54:51.606Z,16.00
2019-02-20T19:57:46.688Z,16.37
2019-02-20T20:00:43.422Z,16.70
2019-02-20T20:03:45.149Z,16.25
2019-02-20T20:06:45.222Z,16.25
2019-02-20T20:09:33.035Z,16.80
2019-02-20T20:12:17.679Z,17.15
2019-02-20T20:15:18.230Z,16.95
2019-02-20T20:18:14.733Z,18.37
2019-02-20T20:21:01.586Z,17.52
2019-02-20T20:24:15.842Z,16.73
2019-02-20T20:27:11.914Z,17.25
2019-02-20T20:30:19.892Z,17.42
2019-02-20T20:33:01.064Z,16.93
2019-02-20T20:36:02.094Z,17.73
2019-02-20T20:39:05.362Z,16.77
2019-02-20T20:42:20.191Z,17.55
2019-02-20T20:45:41.254Z,18.32
2019-02-20T20:48:53.368Z,16.93
2019-02-20T20:52:03.125Z,17.15
2019-02-20T20:54:57.299Z,18.17
2019-02-20T20:57:42.743Z,17.10
2019-02-20T21:01:12.610Z,18.75
2019-02-20T21:04:18.575Z,17.95
2019-02-20T21:07:31.537Z,18.60
2019-02-20T21:10:46.919Z,20.00
2019-02-20T21:13:57.753Z,18.90
2019-02-20T21:17:16.724Z,17.67
2019-02-20T21:20:29.466Z,19.00
2019-02-20T21:24:03.045Z,19.40
2019-02-20T21:27:18.058Z,19.75
2019-02-20T21:30:41.280Z,19.52
2019-02-20T21:34:01.281Z,18.10
2019-02-20T21:37:24.477Z,18.75
2019-02-20T21:40:52.928Z,18.80
2019-02-20T21:44:12.069Z,18.17
2019-02-20T21:47:20.349Z,18.85
2019-02-20T21:50:36.345Z,19.77
2019-02-20T21:53:43.708Z,19.40
2019-02-20T21:56:42.172Z,19.95
2019-02-20T21:59:42.363Z,20.08
2019-02-20T22:02:53.549Z,19.30
2019-02-20T22:05:53.251Z,18.50
2019-02-20T22:08:56.513Z,19.92
2019-02-20T22:12:03.528Z,19.90
2019-02-20T22:15:03.062Z,20.57
2019-02-20T22:17:42.599Z,20.77
2019-02-20T22:20:49.475Z,19.32
2019-02-20T22:23:54.274Z,21.50
2019-02-20T22:27:05.860Z,20.30
2019-02-20T22:30:12.464Z,20.27
2019-02-20T22:33:23.404Z,20.72
2019-02-20T22:36:47.139Z,21.60
2019-02-20T22:39:26.601Z,20.52
2019-02-20T22:42:21.951Z,20.70
2019-02-20T22:45:30.655Z,20.23
2019-02-20T22:48:32.686Z,20.60
2019-02-20T22:51:31.786Z,21.37
2019-02-20T22:54:48.808Z,20.67
2019-02-20T22:57:46.907Z,19.57
2019-02-20T23:01:04.540Z,19.52
2019-02-20T23:04:00.049Z,20.57
2019-02-20T23:07:15.563Z,20.32
2019-02-20T23:10:28.005Z,20.68
2019-02-20T23:13:36.622Z,19.87
2019-02-20T23:16:07.476Z,19.52
2019-02-20T23:18:38.397Z,20.00
2019-02-20T23:21:09.197Z,21.02
2019-02-20T23:23:40.032Z,21.83
2019-02-20T23:26:10.884Z,28.35
2019-02-20T23:28:41.649Z,20.12
2019-02-20T23:31:12.848Z,19.65
2019-02-20T23:33:43.604Z,22.02
2019-02-20T23:36:14.864Z,20.70
2019-02-20T23:38:45.714Z,19.87
2019-02-20T23:41:16.725Z,22.55
2019-02-20T23:43:47.480Z,21.75
2019-02-20T23:46:18.316Z,19.55
2019-02-20T23:48:49.056Z,18.27
2019-02-20T23:51:19.846Z,18.55
2019-02-20T23:53:50.672Z,18.90
2019-02-20T23:56:21.479Z,18.50
2019-02-20T23:58:52.226Z,20.10
